createdAt,value
2019-03-08T00:04:33.966Z,88.452148
2019-03-08T00:09:56.590Z,89.276123
2019-03-08T00:15:19.738Z,88.922119
2019-03-08T00:20:42.363Z,90.203857
2019-03-08T00:26:05.063Z,91.027832
2019-03-08T00:31:27.699Z,91.131592
2019-03-08T00:36:50.364Z,92.926025
2019-03-08T00:42:13.034Z,93.133545
2019-03-08T00:47:36.783Z,93.95752
2019-03-08T00:52:59.388Z,94.885254
2019-03-08T00:58:22.372Z,94.165039
2019-03-08T01:03:45.284Z,93.341064
2019-03-08T01:09:07.898Z,92.926025
2019-03-08T01:14:30.526Z,92.370605
2019-03-08T01:19:53.135Z,91.851807
2019-03-08T01:25:15.744Z,92.779541
2019-03-08T01:30:38.544Z,92.883301
2019-03-08T01:36:01.626Z,92.370605
2019-03-08T01:41:24.215Z,93.09082
2019-03-08T01:46:46.986Z,94.63501
2019-03-08T01:52:09.719Z,95.404053
2019-03-08T01:57:32.390Z,94.372559
2019-03-08T02:02:56.037Z,94.207764
2019-03-08T02:08:20.182Z,94.311523
2019-03-08T02:13:43.406Z,93.17627
2019-03-08T02:19:06.281Z,92.144775
2019-03-08T02:24:29.662Z,91.320801
2019-03-08T02:29:52.324Z,90.490723
2019-03-08T02:35:14.975Z,91.113281
2019-03-08T02:40:37.686Z,91.625977
2019-03-08T02:46:01.243Z,91.625977
2019-03-08T02:51:24.161Z,91.833496
2019-03-08T02:56:46.823Z,92.657471
2019-03-08T03:02:10.396Z,93.426514
2019-03-08T03:07:33.163Z,92.96875
2019-03-08T03:12:55.812Z,93.634033
2019-03-08T03:18:18.489Z,92.657471
2019-03-08T03:23:41.441Z,92.553711
2019-03-08T03:29:12.948Z,91.522217
2019-03-08T03:34:35.992Z,90.142822
2019-03-08T03:39:58.978Z,90.039062
2019-03-08T03:45:21.756Z,90.759277
2019-03-08T03:50:44.467Z,91.833496
2019-03-08T03:56:07.266Z,92.352295
2019-03-08T04:01:29.949Z,92.041016
2019-03-08T04:06:52.765Z,91.522217
2019-03-08T04:12:16.491Z,91.479492
2019-03-08T04:17:38.332Z,91.687012
2019-03-08T04:23:01.099Z,91.729736
2019-03-08T04:28:23.853Z,92.352295
2019-03-08T04:33:48.685Z,93.585205
2019-03-08T04:39:11.467Z,94.000244
2019-03-08T04:44:34.297Z,94.720459
2019-03-08T04:49:56.990Z,94.000244
2019-03-08T04:55:19.687Z,94.415283
2019-03-08T05:00:42.321Z,94.000244
2019-03-08T05:06:05.084Z,93.939209
2019-03-08T05:11:27.805Z,93.383789
2019-03-08T05:16:51.246Z,93.634033
2019-03-08T05:22:13.923Z,94.042969
2019-03-08T05:27:36.926Z,92.96875
2019-03-08T05:33:00.682Z,92.456055
2019-03-08T05:38:23.511Z,93.17627
2019-03-08T05:43:46.370Z,92.248535
2019-03-08T05:49:09.052Z,93.011475
2019-03-08T05:54:31.964Z,92.76123
2019-03-08T05:59:54.768Z,93.792725
2019-03-08T06:05:17.469Z,93.426514
2019-03-08T06:10:40.127Z,94.665527
2019-03-08T06:16:02.922Z,95.428467
2019-03-08T06:21:25.750Z,96.362305
2019-03-08T06:26:48.394Z,97.644043
2019-03-08T06:32:11.097Z,98.205566
2019-03-08T06:37:33.781Z,97.589111
2019-03-08T06:42:56.487Z,96.19751
2019-03-08T06:48:19.169Z,97.021484
2019-03-08T06:53:41.845Z,96.09375
2019-03-08T06:59:04.561Z,97.021484
2019-03-08T07:04:27.283Z,95.727539
2019-03-08T07:09:50.037Z,95.52002
2019-03-08T07:15:12.709Z,95.88623
2019-03-08T07:20:35.478Z,96.612549
2019-03-08T07:25:58.144Z,97.332764
2019-03-08T07:31:21.188Z,96.362305
2019-03-08T07:36:43.943Z,94.604492
2019-03-08T07:42:06.995Z,93.267822
2019-03-08T07:48:08.562Z,97.497559
2019-03-08T07:53:31.530Z,98.034668
2019-03-08T07:58:54.468Z,97.839355
2019-03-08T08:04:17.643Z,97.485352
2019-03-08T08:09:41.563Z,95.532227
2019-03-08T08:15:04.427Z,93.383789
2019-03-08T08:20:27.164Z,92.248535
2019-03-08T08:25:49.960Z,92.86499
2019-03-08T08:31:12.704Z,91.937256
2019-03-08T08:36:35.406Z,89.190674
2019-03-08T08:41:58.152Z,89.709473
2019-03-08T08:47:20.929Z,89.294434
2019-03-08T08:52:43.606Z,88.287354
2019-03-08T08:58:06.397Z,88.201904
2019-03-08T09:03:29.066Z,85.38208
2019-03-08T09:08:51.735Z,84.313965
2019-03-08T09:14:14.494Z,83.38623
2019-03-08T09:19:37.194Z,83.178711
2019-03-08T09:24:59.835Z,84.002686
2019-03-08T09:30:22.643Z,81.5979
2019-03-08T09:35:45.320Z,84.539795
2019-03-08T09:41:08.058Z,84.7229
2019-03-08T09:46:30.663Z,82.293701
2019-03-08T09:51:53.413Z,80.645752
2019-03-08T09:57:16.273Z,79.467773
2019-03-08T10:02:39.003Z,75.762939
2019-03-08T10:08:01.674Z,81.103516
2019-03-08T10:13:24.642Z,87.701416
2019-03-08T10:18:47.450Z,90.142822
2019-03-08T10:24:10.212Z,93.347168
2019-03-08T10:29:33.016Z,91.400146
2019-03-08T10:34:56.902Z,90.948486
2019-03-08T10:40:19.751Z,93.07251
2019-03-08T10:45:43.237Z,90.100098
2019-03-08T10:51:06.186Z,84.942627
2019-03-08T10:56:28.895Z,85.253906
2019-03-08T11:01:51.742Z,84.289551
2019-03-08T11:07:14.455Z,82.385254
2019-03-08T11:12:37.190Z,82.098389
2019-03-08T11:17:59.870Z,81.561279
2019-03-08T11:23:22.683Z,83.435059
2019-03-08T11:28:45.406Z,78.607178
2019-03-08T11:34:08.899Z,73.876953
2019-03-08T11:39:31.621Z,73.638916
2019-03-08T11:44:54.436Z,74.121094
2019-03-08T11:50:17.128Z,77.783203
2019-03-08T11:55:39.830Z,78.814697
2019-03-08T12:01:02.484Z,80.010986
2019-03-08T12:06:25.223Z,77.746582
2019-03-08T12:11:47.887Z,69.494629
2019-03-08T12:17:10.826Z,71.313477
2019-03-08T12:22:33.589Z,72.442627
2019-03-08T12:27:56.297Z,75.115967
2019-03-08T12:33:18.979Z,72.851562
2019-03-08T12:38:42.577Z,71.484375
2019-03-08T12:44:04.416Z,69.506836
2019-03-08T12:49:27.331Z,66.052246
2019-03-08T12:54:50.067Z,63.189697
2019-03-08T13:00:12.776Z,63.409424
2019-03-08T13:05:35.639Z,58.032227
2019-03-08T13:10:58.255Z,62.298584
2019-03-08T13:16:20.965Z,61.151123
2019-03-08T13:21:43.651Z,61.151123
2019-03-08T13:27:06.475Z,63.73291
2019-03-08T13:32:29.336Z,64.599609
2019-03-08T13:37:51.789Z,66.503906
2019-03-08T13:43:14.687Z,70.050049
2019-03-08T13:48:37.464Z,64.996338
2019-03-08T13:54:00.164Z,68.95752
2019-03-08T13:59:22.893Z,71.142578
2019-03-08T14:04:45.644Z,70.251465
2019-03-08T14:10:08.327Z,68.847656
2019-03-08T14:15:31.809Z,71.313477
2019-03-08T14:20:54.483Z,72.509766
2019-03-08T14:26:17.378Z,70.318604
2019-03-08T14:31:40.126Z,64.746094
2019-03-08T14:37:03.714Z,65.83252
2019-03-08T14:42:26.367Z,66.143799
2019-03-08T14:47:49.052Z,65.185547
2019-03-08T14:53:11.845Z,62.255859
2019-03-08T14:58:36.438Z,64.276123
2019-03-08T15:03:57.814Z,61.920166
2019-03-08T15:09:19.884Z,57.757568
2019-03-08T15:14:43.517Z,57.470703
2019-03-08T15:20:14.835Z,56.121826
2019-03-08T15:25:31.422Z,59.143066
2019-03-08T15:30:53.232Z,62.329102
2019-03-08T15:36:15.752Z,60.308838
2019-03-08T15:41:38.515Z,61.022949
2019-03-08T15:47:01.170Z,63.470459
2019-03-08T15:52:24.870Z,65.454102
2019-03-08T15:57:47.540Z,64.599609
2019-03-08T16:03:10.376Z,64.660645
2019-03-08T16:08:35.694Z,68.701172
2019-03-08T16:13:57.047Z,68.774414
2019-03-08T16:19:24.372Z,67.84668
2019-03-08T16:24:43.561Z,69.116211
2019-03-08T16:30:09.465Z,70.690918
2019-03-08T16:35:28.973Z,70.41626
2019-03-08T16:40:51.708Z,71.270752
2019-03-08T16:46:14.443Z,72.302246
2019-03-08T16:51:38.182Z,72.540283
2019-03-08T16:57:01.027Z,73.052979
2019-03-08T17:02:23.757Z,74.432373
2019-03-08T17:07:46.660Z,74.737549
2019-03-08T17:13:09.362Z,75.360107
2019-03-08T17:18:32.031Z,75.152588
2019-03-08T17:23:54.895Z,75.665283
2019-03-08T17:29:17.652Z,75.976562
2019-03-08T17:34:40.530Z,74.945068
2019-03-08T17:40:03.415Z,75.048828
2019-03-08T17:45:26.026Z,75.561523
2019-03-08T17:50:49.633Z,76.489258
2019-03-08T17:56:12.363Z,75.256348
2019-03-08T18:01:39.501Z,74.121094
2019-03-08T18:07:02.466Z,73.980713
2019-03-08T18:12:25.207Z,70.788574
2019-03-08T18:17:48.129Z,70.654297
2019-03-08T18:23:10.912Z,70.550537
2019-03-08T18:28:34.017Z,70.996094
2019-03-08T18:33:56.970Z,71.508789
2019-03-08T18:39:19.315Z,72.027588
2019-03-08T18:44:42.260Z,72.369385
2019-03-08T18:50:05.209Z,73.193359
2019-03-08T18:55:28.095Z,73.504639
2019-03-08T19:00:51.352Z,74.017334
2019-03-08T19:06:14.583Z,73.980713
2019-03-08T19:11:37.273Z,73.779297
2019-03-08T19:17:00.110Z,75.219727
2019-03-08T19:22:26.285Z,74.499512
2019-03-08T19:27:45.673Z,75.012207
2019-03-08T19:33:09.526Z,82.122803
2019-03-08T19:38:32.369Z,85.192871
2019-03-08T19:44:00.511Z,85.852051
2019-03-08T19:49:23.653Z,85.644531
2019-03-08T19:54:47.535Z,86.260986
2019-03-08T20:00:10.249Z,88.262939
2019-03-08T20:05:33.118Z,86.859131
2019-03-08T20:10:56.068Z,88.818359
2019-03-08T20:16:18.117Z,88.549805
2019-03-08T20:21:41.254Z,88.964844
2019-03-08T20:27:04.259Z,90.454102
2019-03-08T20:32:26.218Z,90.350342
2019-03-08T20:37:49.086Z,90.826416
2019-03-08T20:43:12.139Z,90.100098
2019-03-08T20:48:35.810Z,90.307617
2019-03-08T20:53:58.851Z,89.483643
2019-03-08T20:59:21.989Z,89.727783
2019-03-08T21:04:44.867Z,89.831543
2019-03-08T21:10:07.869Z,90.600586
2019-03-08T21:15:30.939Z,90.600586
2019-03-08T21:20:54.199Z,90.802002
2019-03-08T21:26:16.150Z,90.081787
2019-03-08T21:31:39.291Z,90.496826
2019-03-08T21:37:02.358Z,91.217041
2019-03-08T21:42:24.448Z,91.009521
2019-03-08T21:47:47.222Z,90.869141
2019-03-08T21:53:10.105Z,90.557861
2019-03-08T21:58:32.752Z,91.381836
2019-03-08T22:03:55.564Z,91.485596
2019-03-08T22:09:18.235Z,91.900635
2019-03-08T22:14:40.949Z,92.315674
2019-03-08T22:20:03.681Z,92.419434
2019-03-08T22:25:26.357Z,92.626953
2019-03-08T22:30:49.762Z,92.376709
2019-03-08T22:36:12.497Z,92.584229
2019-03-08T22:41:36.067Z,92.022705
2019-03-08T22:46:58.826Z,92.230225
2019-03-08T22:52:21.617Z,92.74292
2019-03-08T22:57:45.837Z,93.261719
2019-03-08T23:03:08.706Z,93.157959
2019-03-08T23:08:31.427Z,93.011475
2019-03-08T23:13:55.373Z,94.189453
2019-03-08T23:19:18.332Z,95.843506
2019-03-08T23:24:42.009Z,96.875
2019-03-08T23:30:05.024Z,96.97876
2019-03-08T23:35:28.287Z,97.65625
2019-03-08T23:40:59.233Z,98.840332
2019-03-08T23:46:30.915Z,99.768066
2019-03-08T23:51:53.724Z,99.664307
2019-03-08T23:57:16.629Z,99.102783
